createdAt,value
2018-05-11T00:00:50.242Z,97.50
2018-05-11T00:03:17.732Z,97.30
2018-05-11T00:05:45.190Z,97.00
2018-05-11T00:08:12.649Z,96.80
2018-05-11T00:10:40.115Z,96.80
2018-05-11T00:13:08.296Z,97.10
2018-05-11T00:15:35.755Z,97.40
2018-05-11T00:18:03.199Z,97.50
2018-05-11T00:20:30.675Z,97.70
2018-05-11T00:22:58.122Z,97.80
2018-05-11T00:25:25.602Z,97.90
2018-05-11T00:27:53.039Z,98.00
2018-05-11T00:30:20.522Z,98.00
2018-05-11T00:32:47.991Z,97.70
2018-05-11T00:35:15.448Z,97.60
2018-05-11T00:37:42.885Z,97.60
2018-05-11T00:40:10.374Z,97.50
2018-05-11T00:42:37.826Z,97.50
2018-05-11T00:45:05.259Z,97.40
2018-05-11T00:47:32.761Z,97.80
2018-05-11T00:50:00.186Z,97.70
2018-05-11T00:52:27.627Z,97.80
2018-05-11T00:54:55.854Z,98.40
2018-05-11T00:57:23.315Z,98.00
2018-05-11T00:59:50.838Z,97.80
2018-05-11T01:02:18.282Z,97.80
2018-05-11T01:04:46.496Z,98.50
2018-05-11T01:07:13.974Z,98.40
2018-05-11T01:09:41.433Z,98.20
2018-05-11T01:12:08.903Z,98.20
2018-05-11T01:14:36.351Z,98.30
2018-05-11T01:17:03.800Z,98.30
2018-05-11T01:19:31.247Z,98.30
2018-05-11T01:21:58.751Z,98.60
2018-05-11T01:24:26.198Z,98.00
2018-05-11T01:26:53.658Z,97.80
2018-05-11T01:29:21.094Z,97.80
2018-05-11T01:31:48.531Z,97.90
2018-05-11T01:34:16.766Z,97.90
2018-05-11T01:36:44.412Z,97.80
2018-05-11T01:39:11.846Z,98.00
2018-05-11T01:41:40.050Z,97.60
2018-05-11T01:44:07.534Z,97.60
2018-05-11T01:46:34.966Z,97.60
2018-05-11T01:49:02.467Z,97.80
2018-05-11T01:51:29.904Z,97.60
2018-05-11T01:53:57.345Z,97.80
2018-05-11T01:56:24.791Z,97.80
2018-05-11T01:58:53.022Z,97.80
2018-05-11T02:01:20.482Z,97.80
2018-05-11T02:03:47.928Z,97.80
2018-05-11T02:06:15.367Z,97.60
2018-05-11T02:08:42.880Z,97.70
2018-05-11T02:11:10.335Z,97.90
2018-05-11T02:13:37.840Z,98.10
2018-05-11T02:16:06.037Z,98.10
2018-05-11T02:18:33.556Z,97.80
2018-05-11T02:21:01.810Z,97.60
2018-05-11T02:23:29.267Z,97.60
2018-05-11T02:25:56.746Z,97.70
2018-05-11T02:28:24.151Z,97.80
2018-05-11T02:30:52.378Z,97.80
2018-05-11T02:33:19.830Z,97.80
2018-05-11T02:35:47.914Z,97.90
2018-05-11T02:38:15.366Z,98.30
2018-05-11T02:40:42.814Z,98.40
2018-05-11T02:43:10.296Z,98.30
2018-05-11T02:45:37.747Z,98.40
2018-05-11T02:48:05.224Z,98.30
2018-05-11T02:50:32.734Z,98.00
2018-05-11T02:53:00.149Z,98.20
2018-05-11T02:55:27.593Z,97.90
2018-05-11T02:57:55.030Z,97.90
2018-05-11T03:00:22.474Z,97.90
2018-05-11T03:02:50.704Z,98.00
2018-05-11T03:05:18.142Z,98.00
2018-05-11T03:07:45.585Z,97.80
2018-05-11T03:10:13.023Z,97.90
2018-05-11T03:12:41.272Z,97.70
2018-05-11T03:15:08.720Z,97.70
2018-05-11T03:17:36.195Z,97.90
2018-05-11T03:20:03.651Z,97.80
2018-05-11T03:22:31.083Z,97.80
2018-05-11T03:24:58.588Z,97.60
2018-05-11T03:27:26.239Z,97.80
2018-05-11T03:29:53.698Z,97.90
2018-05-11T03:32:21.134Z,98.50
2018-05-11T03:34:48.594Z,97.90
2018-05-11T03:37:16.082Z,98.00
2018-05-11T03:39:43.522Z,98.00
2018-05-11T03:42:11.018Z,98.00
2018-05-11T03:44:38.466Z,98.10
2018-05-11T03:47:05.911Z,98.10
2018-05-11T03:49:33.389Z,97.90
2018-05-11T03:52:00.960Z,98.20
2018-05-11T03:54:28.423Z,98.20
2018-05-11T03:56:55.876Z,98.20
2018-05-11T03:59:23.440Z,98.20
2018-05-11T04:02:02.884Z,98.40
2018-05-11T04:04:42.220Z,98.00
2018-05-11T04:07:21.607Z,97.90
2018-05-11T04:09:49.059Z,98.00
2018-05-11T04:12:17.265Z,98.10
2018-05-11T04:14:44.711Z,98.10
2018-05-11T04:17:12.202Z,97.90
2018-05-11T04:19:39.655Z,98.00
2018-05-11T04:22:07.131Z,98.00
2018-05-11T04:24:34.563Z,98.10
2018-05-11T04:27:02.027Z,98.30
2018-05-11T04:29:29.510Z,99.10
2018-05-11T04:31:56.954Z,98.50
2018-05-11T04:34:24.390Z,98.40
2018-05-11T04:36:51.890Z,98.90
2018-05-11T04:39:19.434Z,98.70
2018-05-11T04:41:46.863Z,98.70
2018-05-11T04:44:15.062Z,98.60
2018-05-11T04:46:42.640Z,98.60
2018-05-11T04:49:10.019Z,98.60
2018-05-11T04:51:37.457Z,98.70
2018-05-11T04:54:04.955Z,98.70
2018-05-11T04:56:32.390Z,98.70
2018-05-11T04:58:59.835Z,98.70
2018-05-11T05:01:27.326Z,98.90
2018-05-11T05:03:54.868Z,98.90
2018-05-11T05:06:22.359Z,99.00
2018-05-11T05:08:49.814Z,99.20
2018-05-11T05:11:17.258Z,99.50
2018-05-11T05:13:44.716Z,99.40
2018-05-11T05:16:12.175Z,99.30
2018-05-11T05:18:39.606Z,99.40
2018-05-11T05:21:07.843Z,99.60
2018-05-11T05:23:35.285Z,99.60
2018-05-11T05:26:02.730Z,99.70
2018-05-11T05:28:30.222Z,99.80
2018-05-11T05:30:57.720Z,99.80
2018-05-11T05:33:25.939Z,99.70
2018-05-11T05:35:53.406Z,99.70
2018-05-11T05:38:20.847Z,99.90
2018-05-11T05:40:48.307Z,99.90
2018-05-11T05:43:16.518Z,99.90
2018-05-11T05:45:44.001Z,99.90
2018-05-11T05:48:11.411Z,99.80
2018-05-11T05:50:38.923Z,99.80
2018-05-11T05:53:06.380Z,99.90
2018-05-11T05:55:33.822Z,99.90
2018-05-11T05:58:01.259Z,99.90
2018-05-11T06:00:28.771Z,99.90
2018-05-11T06:02:56.335Z,99.90
2018-05-11T06:05:23.770Z,99.90
2018-05-11T06:07:51.217Z,99.90
2018-05-11T06:10:18.659Z,99.90
2018-05-11T06:12:46.985Z,99.90
2018-05-11T06:15:14.447Z,99.90
2018-05-11T06:17:41.919Z,99.90
2018-05-11T06:20:09.375Z,99.90
2018-05-11T06:22:36.836Z,99.90
2018-05-11T06:25:04.275Z,99.90
2018-05-11T06:27:31.750Z,99.90
2018-05-11T06:29:59.215Z,99.90
2018-05-11T06:32:26.676Z,99.90
2018-05-11T06:34:54.123Z,99.90
2018-05-11T06:37:21.566Z,99.90
2018-05-11T06:39:49.015Z,99.90
2018-05-11T06:42:17.262Z,99.90
2018-05-11T06:44:44.705Z,99.90
2018-05-11T06:47:12.167Z,99.90
2018-05-11T06:49:39.608Z,99.90
2018-05-11T06:52:07.059Z,99.90
2018-05-11T06:54:34.563Z,99.80
2018-05-11T06:57:02.018Z,99.60
2018-05-11T06:59:29.475Z,99.20
2018-05-11T07:01:56.942Z,98.90
2018-05-11T07:04:24.384Z,98.90
2018-05-11T07:06:51.831Z,99.00
2018-05-11T07:09:19.318Z,98.70
2018-05-11T07:11:46.874Z,98.50
2018-05-11T07:14:14.314Z,98.20
2018-05-11T07:16:41.754Z,98.40
2018-05-11T07:19:09.189Z,98.20
2018-05-11T07:21:36.724Z,97.90
2018-05-11T07:24:04.155Z,98.10
2018-05-11T07:26:31.647Z,98.20
2018-05-11T07:28:59.107Z,98.20
2018-05-11T07:31:26.560Z,98.00
2018-05-11T07:33:53.994Z,98.00
2018-05-11T07:36:21.494Z,97.90
2018-05-11T07:38:48.972Z,98.20
2018-05-11T07:41:16.414Z,97.90
2018-05-11T07:43:43.867Z,97.80
2018-05-11T07:46:11.450Z,97.80
2018-05-11T07:48:39.035Z,97.60
2018-05-11T07:51:06.475Z,97.30
2018-05-11T07:53:34.033Z,97.30
2018-05-11T07:56:01.492Z,97.20
2018-05-11T07:58:28.943Z,97.20
2018-05-11T08:00:56.395Z,97.00
2018-05-11T08:03:23.851Z,97.50
2018-05-11T08:05:51.452Z,97.30
2018-05-11T08:08:19.003Z,97.20
2018-05-11T08:10:46.461Z,96.80
2018-05-11T08:13:13.922Z,96.30
2018-05-11T08:15:41.398Z,96.30
2018-05-11T08:18:08.863Z,96.60
2018-05-11T08:20:36.415Z,97.30
2018-05-11T08:23:03.869Z,96.30
2018-05-11T08:25:31.339Z,95.70
2018-05-11T08:27:58.790Z,96.00
2018-05-11T08:30:26.266Z,95.20
2018-05-11T08:32:53.713Z,94.40
2018-05-11T08:35:21.280Z,94.80
2018-05-11T08:37:48.851Z,94.20
2018-05-11T08:40:16.294Z,93.70
2018-05-11T08:42:43.766Z,93.40
2018-05-11T08:45:11.206Z,93.20
2018-05-11T08:47:38.665Z,94.30
2018-05-11T08:50:06.098Z,93.60
2018-05-11T08:52:34.314Z,94.40
2018-05-11T08:55:01.758Z,94.40
2018-05-11T08:57:29.199Z,91.90
2018-05-11T08:59:57.438Z,91.80
2018-05-11T09:02:24.895Z,91.80
2018-05-11T09:04:52.339Z,91.10
2018-05-11T09:07:19.818Z,91.10
2018-05-11T09:09:47.254Z,91.10
2018-05-11T09:12:14.738Z,91.60
2018-05-11T09:14:42.198Z,92.60
2018-05-11T09:17:09.638Z,90.10
2018-05-11T09:19:37.127Z,90.30
2018-05-11T09:22:04.570Z,91.50
2018-05-11T09:24:32.169Z,90.00
2018-05-11T09:26:59.611Z,90.20
2018-05-11T09:29:27.078Z,90.60
2018-05-11T09:31:54.621Z,91.50
2018-05-11T09:34:21.991Z,91.00
2018-05-11T09:36:49.462Z,90.50
2018-05-11T09:39:16.914Z,91.30
2018-05-11T09:41:44.355Z,90.20
2018-05-11T09:44:11.798Z,89.20
2018-05-11T09:46:39.422Z,90.90
2018-05-11T09:49:06.875Z,91.10
2018-05-11T09:51:34.340Z,89.00
2018-05-11T09:54:02.615Z,89.10
2018-05-11T09:56:30.071Z,89.00
2018-05-11T09:58:57.528Z,91.30
2018-05-11T10:01:24.970Z,89.40
2018-05-11T10:03:52.458Z,90.70
2018-05-11T10:06:19.898Z,91.20
2018-05-11T10:08:47.356Z,91.80
2018-05-11T10:11:14.845Z,90.00
2018-05-11T10:13:42.294Z,91.30
2018-05-11T10:16:09.764Z,90.70
2018-05-11T10:18:37.216Z,91.60
2018-05-11T10:21:04.678Z,88.10
2018-05-11T10:23:32.429Z,88.80
2018-05-11T10:25:59.910Z,88.80
2018-05-11T10:28:27.379Z,89.00
2018-05-11T10:30:54.831Z,90.80
2018-05-11T10:33:22.375Z,90.60
2018-05-11T10:35:49.803Z,90.30
2018-05-11T10:38:18.019Z,87.80
2018-05-11T10:40:45.502Z,87.80
2018-05-11T10:43:12.963Z,88.30
2018-05-11T10:45:40.422Z,88.40
2018-05-11T10:48:07.918Z,89.40
2018-05-11T10:50:35.362Z,88.40
2018-05-11T10:53:02.906Z,90.50
2018-05-11T10:55:30.359Z,87.90
2018-05-11T10:57:57.803Z,88.00
2018-05-11T11:00:25.263Z,89.00
2018-05-11T11:02:52.753Z,86.10
2018-05-11T11:05:20.223Z,86.70
2018-05-11T11:07:47.659Z,83.80
2018-05-11T11:10:15.143Z,84.60
2018-05-11T11:12:42.583Z,85.80
2018-05-11T11:15:10.072Z,88.10
2018-05-11T11:17:37.506Z,85.70
2018-05-11T11:20:05.035Z,85.70
2018-05-11T11:22:32.401Z,89.50
2018-05-11T11:25:00.626Z,88.40
2018-05-11T11:27:28.085Z,88.40
2018-05-11T11:29:55.535Z,87.80
2018-05-11T11:32:22.975Z,86.80
2018-05-11T11:34:50.452Z,85.40
2018-05-11T11:37:17.903Z,89.10
2018-05-11T11:39:45.403Z,88.50
2018-05-11T11:42:12.999Z,87.30
2018-05-11T11:44:40.415Z,85.90
2018-05-11T11:47:07.882Z,87.40
2018-05-11T11:49:35.348Z,88.10
2018-05-11T11:52:02.905Z,85.80
2018-05-11T11:54:30.369Z,87.30
2018-05-11T11:56:57.835Z,85.20
2018-05-11T11:59:25.390Z,83.70
2018-05-11T12:01:52.936Z,81.40
2018-05-11T12:04:20.284Z,82.30
2018-05-11T12:06:47.718Z,81.40
2018-05-11T12:09:15.959Z,87.00
2018-05-11T12:11:43.399Z,87.00
2018-05-11T12:14:10.875Z,84.80
2018-05-11T12:16:38.328Z,82.50
2018-05-11T12:19:05.764Z,81.30
2018-05-11T12:21:33.340Z,80.20
2018-05-11T12:24:00.830Z,81.60
2018-05-11T12:26:28.454Z,83.50
2018-05-11T12:28:55.798Z,81.40
2018-05-11T12:31:24.036Z,79.60
2018-05-11T12:33:51.489Z,79.50
2018-05-11T12:36:18.941Z,81.80
2018-05-11T12:38:46.591Z,79.80
2018-05-11T12:41:14.098Z,81.80
2018-05-11T12:43:41.470Z,81.90
2018-05-11T12:46:09.007Z,82.10
2018-05-11T12:48:36.455Z,80.20
2018-05-11T12:51:03.926Z,79.70
2018-05-11T12:53:31.362Z,79.60
2018-05-11T12:55:58.816Z,79.50
2018-05-11T12:58:26.310Z,79.80
2018-05-11T13:00:53.754Z,78.90
2018-05-11T13:03:21.439Z,81.10
2018-05-11T13:05:48.878Z,79.80
2018-05-11T13:08:16.306Z,79.10
2018-05-11T13:10:44.539Z,80.50
2018-05-11T13:13:12.134Z,80.50
2018-05-11T13:15:39.602Z,80.40
2018-05-11T13:18:07.838Z,79.10
2018-05-11T13:20:35.312Z,78.40
2018-05-11T13:23:02.747Z,75.30
2018-05-11T13:25:30.227Z,77.50
2018-05-11T13:27:57.699Z,75.50
2018-05-11T13:30:25.241Z,75.80
2018-05-11T13:32:52.619Z,78.10
2018-05-11T13:35:20.069Z,78.40
2018-05-11T13:37:47.530Z,76.80
2018-05-11T13:40:14.976Z,76.90
2018-05-11T13:42:42.402Z,79.10
2018-05-11T13:45:10.639Z,75.90
2018-05-11T13:47:38.104Z,75.80
2018-05-11T13:50:05.554Z,78.60
2018-05-11T13:52:32.985Z,79.90
2018-05-11T13:55:00.439Z,78.70
2018-05-11T13:57:28.640Z,80.20
2018-05-11T13:59:56.074Z,80.10
2018-05-11T14:02:24.295Z,80.30
2018-05-11T14:04:51.741Z,80.30
2018-05-11T14:07:19.187Z,78.90
2018-05-11T14:09:46.626Z,79.80
2018-05-11T14:12:14.838Z,80.10
2018-05-11T14:14:42.274Z,80.10
2018-05-11T14:17:10.537Z,79.30
2018-05-11T14:19:37.967Z,79.30
2018-05-11T14:22:05.431Z,80.40
2018-05-11T14:24:32.892Z,77.30
2018-05-11T14:27:00.347Z,79.70
2018-05-11T14:29:27.806Z,79.90
2018-05-11T14:31:55.311Z,76.20
2018-05-11T14:34:22.678Z,79.60
2018-05-11T14:36:50.912Z,79.70
2018-05-11T14:39:18.429Z,79.70
2018-05-11T14:41:45.835Z,79.70
2018-05-11T14:44:13.273Z,79.50
2018-05-11T14:46:40.750Z,78.90
2018-05-11T14:49:08.187Z,79.90
2018-05-11T14:51:35.634Z,77.20
2018-05-11T14:54:03.162Z,77.80
2018-05-11T14:56:30.697Z,79.20
2018-05-11T14:58:58.135Z,78.90
2018-05-11T15:01:25.622Z,79.40
2018-05-11T15:03:53.072Z,78.50
2018-05-11T15:06:20.511Z,77.90
2018-05-11T15:08:48.006Z,75.70
2018-05-11T15:11:15.476Z,77.10
2018-05-11T15:13:43.008Z,76.50
2018-05-11T15:16:10.464Z,75.80
2018-05-11T15:18:37.894Z,75.00
2018-05-11T15:21:06.138Z,72.10
2018-05-11T15:23:33.576Z,71.90
2018-05-11T15:26:01.020Z,76.00
2018-05-11T15:28:28.450Z,75.90
2018-05-11T15:30:55.959Z,73.30
2018-05-11T15:33:23.386Z,72.60
2018-05-11T15:35:51.586Z,72.10
2018-05-11T15:38:19.071Z,72.00
2018-05-11T15:40:46.647Z,70.10
2018-05-11T15:43:14.106Z,70.80
2018-05-11T15:45:41.543Z,69.30
2018-05-11T15:48:09.015Z,67.20
2018-05-11T15:50:36.454Z,66.30
2018-05-11T15:53:03.899Z,65.20
2018-05-11T15:55:32.208Z,68.10
2018-05-11T15:57:59.653Z,68.10
2018-05-11T16:00:27.087Z,68.10
2018-05-11T16:02:54.618Z,68.20
2018-05-11T16:05:22.055Z,68.60
2018-05-11T16:07:49.519Z,69.00
2018-05-11T16:10:16.998Z,70.70
2018-05-11T16:12:44.581Z,70.50
2018-05-11T16:15:12.022Z,71.90
2018-05-11T16:17:39.510Z,72.60
2018-05-11T16:20:06.930Z,72.80
2018-05-11T16:22:34.386Z,73.30
2018-05-11T16:25:01.910Z,73.50
2018-05-11T16:27:29.327Z,74.50
2018-05-11T16:29:56.799Z,75.60
2018-05-11T16:32:24.251Z,75.60
2018-05-11T16:34:51.695Z,76.80
2018-05-11T16:37:19.153Z,76.40
2018-05-11T16:39:46.648Z,77.00
2018-05-11T16:42:14.102Z,78.10
2018-05-11T16:44:41.568Z,77.50
2018-05-11T16:47:09.085Z,79.10
2018-05-11T16:49:36.594Z,78.70
2018-05-11T16:52:04.034Z,78.40
2018-05-11T16:54:31.480Z,78.50
2018-05-11T16:56:58.931Z,79.60
2018-05-11T16:59:27.162Z,79.20
2018-05-11T17:01:54.619Z,79.00
2018-05-11T17:04:22.059Z,74.50
2018-05-11T17:06:49.493Z,76.50
2018-05-11T17:09:17.003Z,77.70
2018-05-11T17:11:44.466Z,77.50
2018-05-11T17:14:11.907Z,79.40
2018-05-11T17:16:39.342Z,78.70
2018-05-11T17:19:06.786Z,79.10
2018-05-11T17:21:35.051Z,79.50
2018-05-11T17:24:02.508Z,79.30
2018-05-11T17:26:29.938Z,79.60
2018-05-11T17:28:57.391Z,79.00
2018-05-11T17:31:24.831Z,79.00
2018-05-11T17:33:52.406Z,81.10
2018-05-11T17:36:19.826Z,80.00
2018-05-11T17:38:47.270Z,81.50
2018-05-11T17:41:14.759Z,81.20
2018-05-11T17:43:42.159Z,81.00
2018-05-11T17:46:09.608Z,79.70
2018-05-11T17:48:37.154Z,80.10
2018-05-11T17:51:05.250Z,80.40
2018-05-11T17:53:32.710Z,80.30
2018-05-11T17:56:00.136Z,79.50
2018-05-11T17:58:28.379Z,80.30
2018-05-11T18:00:55.849Z,80.00
2018-05-11T18:03:23.307Z,80.60
2018-05-11T18:05:50.744Z,81.20
2018-05-11T18:08:18.190Z,82.10
2018-05-11T18:10:45.683Z,82.80
2018-05-11T18:13:13.127Z,81.40
2018-05-11T18:15:40.563Z,80.10
2018-05-11T18:18:08.788Z,81.60
2018-05-11T18:20:36.218Z,81.70
2018-05-11T18:23:03.663Z,81.70
2018-05-11T18:25:31.166Z,81.70
2018-05-11T18:27:58.620Z,81.00
2018-05-11T18:30:26.050Z,80.40
2018-05-11T18:32:53.498Z,81.70
2018-05-11T18:35:21.735Z,83.50
2018-05-11T18:37:49.190Z,83.40
2018-05-11T18:40:16.890Z,82.10
2018-05-11T18:42:44.435Z,82.10
2018-05-11T18:45:11.874Z,82.00
2018-05-11T18:47:39.349Z,82.20
2018-05-11T18:50:06.803Z,81.50
2018-05-11T18:52:34.371Z,81.60
2018-05-11T18:55:01.824Z,81.00
2018-05-11T18:57:29.343Z,80.50
2018-05-11T18:59:57.672Z,83.60
2018-05-11T19:02:25.116Z,83.70
2018-05-11T19:04:52.557Z,82.80
2018-05-11T19:07:19.992Z,82.80
2018-05-11T19:09:47.535Z,82.30
2018-05-11T19:12:15.059Z,82.70
2018-05-11T19:14:44.060Z,85.20
2018-05-11T19:17:11.486Z,85.20
2018-05-11T19:19:39.694Z,84.90
2018-05-11T19:22:07.156Z,84.80
2018-05-11T19:24:34.609Z,85.80
2018-05-11T19:27:02.898Z,86.10
2018-05-11T19:29:30.327Z,86.80
2018-05-11T19:31:58.640Z,85.10
2018-05-11T19:34:26.065Z,85.10
2018-05-11T19:36:54.322Z,87.00
2018-05-11T19:39:21.778Z,87.00
2018-05-11T19:41:49.305Z,86.80
2018-05-11T19:44:16.798Z,86.90
2018-05-11T19:46:44.250Z,85.20
2018-05-11T19:49:11.715Z,85.50
2018-05-11T19:51:39.169Z,85.60
2018-05-11T19:54:06.752Z,84.70
2018-05-11T19:56:36.755Z,84.80
2018-05-11T19:59:04.393Z,86.00
2018-05-11T20:01:31.847Z,88.90
2018-05-11T20:04:00.071Z,87.60
2018-05-11T20:06:27.535Z,87.60
2018-05-11T20:08:55.042Z,89.90
2018-05-11T20:11:23.238Z,86.30
2018-05-11T20:13:50.738Z,86.30
2018-05-11T20:16:18.272Z,87.70
2018-05-11T20:18:45.754Z,87.00
2018-05-11T20:21:13.240Z,88.30
2018-05-11T20:23:40.699Z,88.40
2018-05-11T20:26:08.141Z,85.30
2018-05-11T20:28:35.579Z,86.60
2018-05-11T20:31:03.018Z,87.60
2018-05-11T20:33:31.231Z,87.10
2018-05-11T20:35:58.674Z,86.90
2018-05-11T20:38:26.166Z,85.80
2018-05-11T20:40:53.707Z,88.20
2018-05-11T20:43:21.134Z,88.50
2018-05-11T20:45:48.600Z,88.80
2018-05-11T20:48:16.802Z,87.00
2018-05-11T20:50:44.284Z,87.00
2018-05-11T20:53:11.689Z,87.80
2018-05-11T20:55:39.189Z,87.00
2018-05-11T20:58:06.614Z,87.40
2018-05-11T21:00:34.831Z,87.50
2018-05-11T21:03:02.275Z,87.50
2018-05-11T21:05:29.725Z,87.00
2018-05-11T21:07:57.955Z,88.00
2018-05-11T21:10:25.399Z,87.90
2018-05-11T21:12:52.877Z,87.10
2018-05-11T21:15:20.326Z,88.30
2018-05-11T21:17:47.769Z,89.00
2018-05-11T21:20:15.215Z,88.60
2018-05-11T21:22:43.446Z,90.00
2018-05-11T21:25:10.882Z,90.00
2018-05-11T21:27:38.366Z,88.30
2018-05-11T21:30:05.830Z,89.20
2018-05-11T21:32:33.361Z,90.10
2018-05-11T21:35:00.818Z,89.60
2018-05-11T21:37:28.419Z,90.00
2018-05-11T21:39:55.865Z,90.00
2018-05-11T21:42:23.309Z,89.00
2018-05-11T21:44:50.803Z,86.80
2018-05-11T21:47:18.254Z,87.50
2018-05-11T21:49:45.794Z,89.80
2018-05-11T21:52:13.287Z,88.30
2018-05-11T21:54:40.843Z,90.40
2018-05-11T21:57:08.366Z,91.20
2018-05-11T21:59:35.779Z,90.00
2018-05-11T22:02:03.226Z,90.90
2018-05-11T22:04:30.836Z,90.30
2018-05-11T22:06:59.047Z,90.10
2018-05-11T22:09:26.543Z,90.00
2018-05-11T22:11:53.999Z,89.70
2018-05-11T22:14:21.430Z,90.00
2018-05-11T22:16:48.919Z,91.50
2018-05-11T22:19:16.418Z,91.50
2018-05-11T22:21:44.662Z,91.40
2018-05-11T22:24:12.129Z,91.10
2018-05-11T22:26:39.586Z,91.30
2018-05-11T22:29:07.031Z,90.20
2018-05-11T22:31:34.512Z,91.10
2018-05-11T22:34:01.979Z,91.70
2018-05-11T22:36:29.426Z,91.50
2018-05-11T22:38:56.991Z,91.10
2018-05-11T22:41:24.438Z,90.60
2018-05-11T22:43:52.019Z,90.90
2018-05-11T22:46:19.462Z,90.90
2018-05-11T22:48:46.943Z,91.00
2018-05-11T22:51:14.390Z,91.00
2018-05-11T22:53:41.832Z,90.80
2018-05-11T22:56:09.322Z,91.00
2018-05-11T22:58:36.791Z,91.40
2018-05-11T23:01:04.246Z,91.10
2018-05-11T23:03:31.692Z,91.30
2018-05-11T23:05:59.203Z,91.50
2018-05-11T23:08:26.639Z,91.40
2018-05-11T23:10:54.098Z,91.40
2018-05-11T23:13:21.558Z,91.70
2018-05-11T23:15:49.031Z,92.00
2018-05-11T23:18:16.473Z,91.80
2018-05-11T23:20:43.934Z,91.50
2018-05-11T23:23:11.379Z,92.00
2018-05-11T23:25:38.917Z,92.10
2018-05-11T23:28:07.143Z,92.60
2018-05-11T23:30:34.588Z,92.60
2018-05-11T23:33:02.079Z,92.60
2018-05-11T23:35:29.522Z,92.80
2018-05-11T23:37:56.992Z,92.30
2018-05-11T23:40:24.442Z,93.60
2018-05-11T23:42:51.915Z,93.90
2018-05-11T23:45:19.375Z,93.30
2018-05-11T23:47:46.823Z,93.20
2018-05-11T23:50:14.272Z,93.90
2018-05-11T23:52:41.759Z,93.10
2018-05-11T23:55:09.331Z,93.30
2018-05-11T23:57:36.887Z,93.50
